Time;durP1;ratioP1;P1;durP2;ratioP2;P2;SDS_P1;SDS_P2;PMS_P1;PMS_P2;Temp;Humidity;BMP_temperature;BMP_pressure;BME280_temperature;BME280_humidity;BME280_pressure;Samples;Min_cycle;Max_cycle;Signal;HPM_P1;HPM_P2
2021/10/12 00:01:25;;;;;;;;;;;25.10;46.40;;;;;;5115165;28;19923;-80
2021/10/12 00:03:51;;;;;;;;;;;25.10;46.40;;;;;;5114524;28;20232;-79
2021/10/12 00:06:16;;;;;;;;;;;25.10;46.40;;;;;;5097622;28;19987;-80
2021/10/12 00:08:42;;;;;;;;;;;25.10;46.50;;;;;;5097929;28;19964;-80
2021/10/12 00:11:07;;;;;;;;;;;25.10;46.50;;;;;;5115275;28;20387;-79
2021/10/12 00:13:33;;;;;;;;;;;25.10;47.10;;;;;;5097515;28;19916;-79
2021/10/12 00:16:01;;;;;;;;;;;25.10;46.50;;;;;;5115267;28;20286;-81
2021/10/12 00:18:26;;;;;;;;;;;25.10;46.50;;;;;;5114477;28;19935;-79
2021/10/12 00:20:52;;;;;;;;;;;25.10;46.50;;;;;;5114314;28;20303;-79
2021/10/12 00:23:20;;;;;;;;;;;25.10;46.60;;;;;;5116572;28;20332;-78
2021/10/12 00:25:45;;;;;;;;;;;25.10;46.60;;;;;;5118247;28;19912;-82
2021/10/12 00:28:11;;;;;;;;;;;25.10;46.60;;;;;;5118976;28;19908;-82
2021/10/12 00:30:39;;;;;;;;;;;25.10;46.60;;;;;;5118863;28;19994;-81
2021/10/12 00:33:04;;;;;;;;;;;25.10;46.70;;;;;;5118703;28;20018;-81
2021/10/12 00:35:30;;;;;;;;;;;25.10;46.60;;;;;;5121919;28;20456;-78
2021/10/12 00:38:00;;;;;;;;;;;25.10;46.70;;;;;;5123165;28;19908;-79
2021/10/12 00:40:26;;;;;;;;;;;25.10;46.70;;;;;;5120992;28;20336;-83
2021/10/12 00:42:54;;;;;;;;;;;25.10;46.70;;;;;;5101400;28;19919;-81
2021/10/12 00:45:22;;;;;;;;;;;25.10;46.70;;;;;;5118626;28;19926;-81
2021/10/12 00:48:14;;;;;;;;;;;25.10;46.70;;;;;;5119577;28;19939;-79
2021/10/12 00:50:40;;;;;;;;;;;25.10;46.70;;;;;;5117142;28;19908;-79
2021/10/12 00:53:05;;;;;;;;;;;25.00;46.70;;;;;;5101497;28;19923;-78
2021/10/12 00:55:36;;;;;;;;;;;25.00;46.80;;;;;;5116185;28;19912;-80
2021/10/12 00:58:09;;;;;;;;;;;25.00;46.70;;;;;;5097869;28;19908;-79
2021/10/12 01:00:37;;;;;;;;;;;25.00;46.80;;;;;;5081341;28;19999;-79
2021/10/12 01:03:05;;;;;;;;;;;25.00;46.80;;;;;;5097899;28;20320;-80
2021/10/12 01:05:31;;;;;;;;;;;25.10;46.80;;;;;;5098790;28;20252;-81
2021/10/12 01:07:56;;;;;;;;;;;25.00;46.80;;;;;;5097633;28;20321;-78
2021/10/12 01:10:24;;;;;;;;;;;25.00;46.80;;;;;;5097729;28;19918;-80
2021/10/12 01:12:50;;;;;;;;;;;25.00;46.80;;;;;;5080471;28;19909;-80
2021/10/12 01:15:16;;;;;;;;;;;25.00;46.90;;;;;;5097431;28;19972;-84
2021/10/12 01:17:41;;;;;;;;;;;25.00;46.80;;;;;;5097270;28;19957;-83
2021/10/12 01:20:10;;;;;;;;;;;25.00;46.90;;;;;;5081051;28;19908;-79
2021/10/12 01:22:42;;;;;;;;;;;25.00;46.90;;;;;;5097178;28;19953;-81
2021/10/12 01:25:08;;;;;;;;;;;25.00;47.00;;;;;;5097836;28;19908;-78
2021/10/12 01:27:33;;;;;;;;;;;25.00;47.00;;;;;;5097376;28;20254;-83
2021/10/12 01:29:59;;;;;;;;;;;25.00;46.90;;;;;;5080702;28;19919;-79
2021/10/12 01:32:24;;;;;;;;;;;25.00;47.00;;;;;;5097232;28;19912;-80
2021/10/12 01:34:52;;;;;;;;;;;25.00;47.00;;;;;;5079521;28;19908;-83
2021/10/12 01:37:18;;;;;;;;;;;25.00;47.00;;;;;;5096444;28;19920;-77
2021/10/12 01:39:44;;;;;;;;;;;25.00;47.00;;;;;;5097568;28;20007;-79
2021/10/12 01:42:09;;;;;;;;;;;25.00;47.00;;;;;;5097549;28;20305;-80
2021/10/12 01:44:35;;;;;;;;;;;25.00;47.00;;;;;;5097217;28;19912;-80
2021/10/12 01:47:03;;;;;;;;;;;25.00;47.10;;;;;;5079975;28;19908;-81
2021/10/12 01:49:28;;;;;;;;;;;24.90;47.10;;;;;;5096303;28;19909;-80
2021/10/12 01:51:54;;;;;;;;;;;25.00;47.10;;;;;;5097414;28;19908;-78
2021/10/12 01:54:22;;;;;;;;;;;25.00;47.10;;;;;;5079813;28;19908;-79
2021/10/12 01:56:48;;;;;;;;;;;24.90;47.00;;;;;;5096188;28;20018;-77
2021/10/12 01:59:13;;;;;;;;;;;25.00;47.10;;;;;;5096007;28;19948;-78
2021/10/12 02:01:39;;;;;;;;;;;25.00;47.10;;;;;;5079279;28;19908;-82
2021/10/12 02:04:05;;;;;;;;;;;24.90;47.10;;;;;;5079468;28;19912;-83
2021/10/12 02:06:30;;;;;;;;;;;24.90;47.10;;;;;;5095900;28;19908;-81
2021/10/12 02:08:58;;;;;;;;;;;24.90;47.10;;;;;;5096051;28;20335;-80
2021/10/12 02:11:23;;;;;;;;;;;24.90;47.20;;;;;;5095932;28;19914;-81
2021/10/12 02:13:52;;;;;;;;;;;24.90;47.20;;;;;;5095635;28;20287;-79
2021/10/12 02:16:17;;;;;;;;;;;24.90;47.20;;;;;;5096449;28;19959;-81
2021/10/12 02:18:45;;;;;;;;;;;24.90;47.20;;;;;;5078928;28;19955;-82
2021/10/12 02:21:11;;;;;;;;;;;24.90;47.20;;;;;;5079038;28;19915;-82
2021/10/12 02:23:39;;;;;;;;;;;24.90;47.20;;;;;;5095661;28;19908;-79
2021/10/12 02:26:04;;;;;;;;;;;24.90;47.20;;;;;;5095676;28;19951;-79
2021/10/12 02:28:32;;;;;;;;;;;24.90;47.30;;;;;;5095729;28;19951;-79
2021/10/12 02:31:00;;;;;;;;;;;24.90;47.30;;;;;;5095700;28;19942;-84
2021/10/12 02:33:26;;;;;;;;;;;24.90;47.30;;;;;;5096011;28;20003;-81
2021/10/12 02:35:51;;;;;;;;;;;24.80;47.30;;;;;;5078798;28;20351;-80
2021/10/12 02:38:19;;;;;;;;;;;24.80;47.30;;;;;;5079060;28;19919;-82
2021/10/12 02:40:49;;;;;;;;;;;24.80;47.30;;;;;;5078959;28;19951;-78
2021/10/12 02:43:15;;;;;;;;;;;24.80;47.30;;;;;;5079447;28;19908;-81
2021/10/12 02:45:40;;;;;;;;;;;24.80;47.30;;;;;;5095554;28;19908;-80
2021/10/12 02:48:06;;;;;;;;;;;24.80;47.30;;;;;;5095489;28;19968;-81
2021/10/12 02:50:31;;;;;;;;;;;24.80;47.30;;;;;;5095391;28;20003;-81
2021/10/12 02:52:59;;;;;;;;;;;24.80;47.30;;;;;;5096096;28;19908;-78
2021/10/12 02:55:27;;;;;;;;;;;24.30;37.60;;;;;;5095884;28;19916;-78
2021/10/12 02:57:55;;;;;;;;;;;23.40;40.00;;;;;;5115122;28;20353;-81
2021/10/12 03:00:20;;;;;;;;;;;23.40;42.30;;;;;;5116269;28;19908;-78
2021/10/12 03:02:48;;;;;;;;;;;23.70;44.20;;;;;;5116275;28;19908;-79
2021/10/12 03:05:14;;;;;;;;;;;23.90;44.40;;;;;;5116232;28;19911;-78
2021/10/12 03:07:40;;;;;;;;;;;24.10;44.10;;;;;;5116350;28;20334;-77
2021/10/12 03:10:06;;;;;;;;;;;24.20;44.60;;;;;;5098529;28;19945;-80
2021/10/12 03:12:33;;;;;;;;;;;24.40;44.20;;;;;;5098744;28;19908;-78
2021/10/12 03:14:59;;;;;;;;;;;24.40;44.50;;;;;;5115261;28;19998;-78
2021/10/12 03:17:24;;;;;;;;;;;24.50;44.30;;;;;;5116177;28;20394;-76
2021/10/12 03:19:52;;;;;;;;;;;24.60;44.50;;;;;;5115451;28;19919;-74
2021/10/12 03:22:18;;;;;;;;;;;24.70;44.80;;;;;;5114877;28;20064;-76
2021/10/12 03:24:46;;;;;;;;;;;24.80;44.90;;;;;;5115821;28;20354;-76
2021/10/12 03:27:11;;;;;;;;;;;24.80;45.20;;;;;;5115681;28;19907;-78
2021/10/12 03:29:37;;;;;;;;;;;24.90;45.60;;;;;;5105175;28;19990;-76
2021/10/12 03:32:03;;;;;;;;;;;24.90;45.50;;;;;;5116909;27;19974;-77
2021/10/12 03:34:28;;;;;;;;;;;25.00;45.40;;;;;;5084639;28;20263;-77
2021/10/12 03:36:54;;;;;;;;;;;25.00;45.60;;;;;;5095052;28;20002;-75
2021/10/12 03:39:20;;;;;;;;;;;25.00;45.70;;;;;;5113822;28;19908;-79
2021/10/12 03:41:46;;;;;;;;;;;25.10;45.60;;;;;;5107613;28;19912;-76
2021/10/12 03:44:11;;;;;;;;;;;25.00;45.60;;;;;;5107513;28;19927;-76
2021/10/12 03:46:37;;;;;;;;;;;25.00;45.70;;;;;;5110837;28;20344;-74
2021/10/12 03:49:02;;;;;;;;;;;25.10;45.80;;;;;;5094956;28;19908;-78
2021/10/12 03:51:28;;;;;;;;;;;25.10;45.80;;;;;;5093949;28;19908;-78
2021/10/12 03:53:53;;;;;;;;;;;25.10;45.70;;;;;;5094096;28;19908;-79
2021/10/12 03:56:19;;;;;;;;;;;25.10;45.70;;;;;;5136755;27;19912;-79
2021/10/12 03:58:44;;;;;;;;;;;25.10;45.70;;;;;;5118223;28;19908;-81
2021/10/12 04:01:10;;;;;;;;;;;25.10;45.80;;;;;;5118729;28;19907;-78
2021/10/12 04:03:35;;;;;;;;;;;25.10;45.90;;;;;;5098454;28;20355;-79
2021/10/12 04:06:03;;;;;;;;;;;25.10;45.90;;;;;;5099191;28;19916;-75
2021/10/12 04:08:28;;;;;;;;;;;25.10;46.00;;;;;;5098446;28;19908;-78
2021/10/12 04:10:56;;;;;;;;;;;25.10;46.10;;;;;;5099094;28;20348;-79
2021/10/12 04:13:24;;;;;;;;;;;25.10;46.10;;;;;;5132164;27;20369;-79
2021/10/12 04:15:52;;;;;;;;;;;25.10;46.20;;;;;;5131338;27;19955;-77
2021/10/12 04:18:17;;;;;;;;;;;25.10;46.40;;;;;;5115270;28;20329;-78
2021/10/12 04:20:43;;;;;;;;;;;25.20;46.40;;;;;;5132353;27;19908;-80
2021/10/12 04:23:10;;;;;;;;;;;25.20;46.40;;;;;;5114769;28;19919;-79
2021/10/12 04:25:39;;;;;;;;;;;25.20;46.40;;;;;;5098869;28;20367;-78
2021/10/12 04:28:10;;;;;;;;;;;25.20;46.40;;;;;;5097877;28;19957;-80
2021/10/12 04:30:36;;;;;;;;;;;25.20;46.60;;;;;;5098317;28;19912;-77
2021/10/12 04:33:04;;;;;;;;;;;25.20;46.70;;;;;;5132143;27;19964;-77
2021/10/12 04:35:32;;;;;;;;;;;25.20;46.70;;;;;;5097401;28;19912;-78
2021/10/12 04:38:00;;;;;;;;;;;25.20;46.80;;;;;;5126931;27;19947;-78
2021/10/12 04:40:25;;;;;;;;;;;25.20;46.90;;;;;;5078120;28;19927;-79
2021/10/12 04:42:51;;;;;;;;;;;25.20;46.90;;;;;;5094193;28;19926;-79
2021/10/12 04:45:16;;;;;;;;;;;25.20;46.90;;;;;;5077172;28;20003;-79
2021/10/12 04:47:42;;;;;;;;;;;25.20;47.00;;;;;;5111319;28;19908;-81
2021/10/12 04:50:10;;;;;;;;;;;25.20;47.00;;;;;;5093964;28;19920;-76
2021/10/12 04:52:40;;;;;;;;;;;25.20;47.00;;;;;;5110079;28;19912;-78
2021/10/12 04:55:08;;;;;;;;;;;25.20;47.10;;;;;;5078030;28;19912;-80
2021/10/12 04:57:36;;;;;;;;;;;25.20;47.20;;;;;;5149093;27;19922;-80
2021/10/12 05:00:05;;;;;;;;;;;25.20;47.30;;;;;;5117565;28;19947;-76
2021/10/12 05:02:33;;;;;;;;;;;25.20;47.40;;;;;;5100831;28;20241;-81
2021/10/12 05:04:59;;;;;;;;;;;25.20;47.40;;;;;;5118486;28;19994;-79
2021/10/12 05:07:24;;;;;;;;;;;25.20;47.40;;;;;;5117954;28;19950;-79
2021/10/12 05:09:52;;;;;;;;;;;25.20;47.50;;;;;;5117156;28;20336;-80
2021/10/12 05:12:20;;;;;;;;;;;25.20;47.50;;;;;;5118053;28;20229;-77
2021/10/12 05:14:48;;;;;;;;;;;25.20;47.50;;;;;;5100122;28;19923;-80
2021/10/12 05:17:24;;;;;;;;;;;25.20;47.50;;;;;;5117763;28;19916;-79
2021/10/12 05:19:49;;;;;;;;;;;25.20;47.50;;;;;;5117176;28;20253;-80
2021/10/12 05:22:20;;;;;;;;;;;25.30;47.60;;;;;;5116989;28;19923;-76
2021/10/12 05:24:45;;;;;;;;;;;25.30;47.80;;;;;;5117822;28;19915;-77
2021/10/12 05:27:11;;;;;;;;;;;25.30;47.80;;;;;;5117746;28;19961;-80
2021/10/12 05:29:41;;;;;;;;;;;25.30;47.90;;;;;;5100076;28;20332;-79
2021/10/12 05:32:08;;;;;;;;;;;25.30;47.80;;;;;;5117119;28;19908;-80
2021/10/12 05:34:33;;;;;;;;;;;25.30;47.80;;;;;;5117331;28;19907;-79
2021/10/12 05:37:00;;;;;;;;;;;25.30;47.90;;;;;;5099544;28;19920;-78
2021/10/12 05:39:31;;;;;;;;;;;25.30;48.00;;;;;;5100519;28;19916;-81
2021/10/12 05:41:56;;;;;;;;;;;25.30;48.10;;;;;;5112495;28;19994;-79
2021/10/12 05:44:22;;;;;;;;;;;25.40;48.20;;;;;;5095760;28;20364;-78
2021/10/12 05:46:47;;;;;;;;;;;25.40;47.90;;;;;;5112876;28;20380;-79
2021/10/12 05:49:13;;;;;;;;;;;25.40;48.20;;;;;;5112669;28;20276;-79
2021/10/12 05:51:41;;;;;;;;;;;25.40;48.40;;;;;;5096478;28;19908;-77
2021/10/12 05:54:07;;;;;;;;;;;25.50;48.40;;;;;;5129309;27;20502;-78
2021/10/12 05:56:46;;;;;;;;;;;25.40;48.40;;;;;;5106146;28;19954;-81
2021/10/12 05:59:11;;;;;;;;;;;25.50;48.50;;;;;;5116430;28;19912;-79
2021/10/12 06:01:40;;;;;;;;;;;25.50;48.50;;;;;;5116644;28;19977;-81
2021/10/12 06:04:06;;;;;;;;;;;25.50;48.50;;;;;;5116585;28;20343;-80
2021/10/12 06:06:32;;;;;;;;;;;25.60;48.50;;;;;;5099555;28;19911;-81
2021/10/12 06:09:02;;;;;;;;;;;25.60;48.50;;;;;;5117183;28;19915;-78
2021/10/12 06:11:30;;;;;;;;;;;25.60;48.50;;;;;;5099482;28;19908;-80
2021/10/12 06:13:56;;;;;;;;;;;25.60;48.50;;;;;;5116161;28;19916;-78
2021/10/12 06:16:22;;;;;;;;;;;25.60;48.50;;;;;;5115695;28;20359;-79
2021/10/12 06:18:48;;;;;;;;;;;25.60;48.60;;;;;;5116626;28;19907;-77
2021/10/12 06:21:13;;;;;;;;;;;25.60;48.60;;;;;;5098088;28;19919;-82
2021/10/12 06:23:41;;;;;;;;;;;25.60;48.60;;;;;;5098480;28;19916;-78
2021/10/12 06:26:07;;;;;;;;;;;25.70;48.70;;;;;;5115541;28;20662;-78
2021/10/12 06:28:32;;;;;;;;;;;25.60;48.60;;;;;;5115796;28;19907;-79
2021/10/12 06:31:00;;;;;;;;;;;25.60;48.40;;;;;;5098818;28;19907;-80
2021/10/12 06:33:26;;;;;;;;;;;25.70;48.60;;;;;;5116066;28;19912;-80
2021/10/12 06:35:51;;;;;;;;;;;25.70;48.40;;;;;;5098097;28;19920;-80
2021/10/12 06:38:17;;;;;;;;;;;25.70;48.60;;;;;;5108046;28;19935;-80
2021/10/12 06:40:42;;;;;;;;;;;25.70;48.40;;;;;;5112306;28;20233;-80
2021/10/12 06:43:08;;;;;;;;;;;25.70;48.60;;;;;;5128915;27;19916;-79
2021/10/12 06:45:35;;;;;;;;;;;25.70;48.30;;;;;;5128705;27;19908;-80
2021/10/12 06:48:03;;;;;;;;;;;25.70;48.40;;;;;;5095589;28;19908;-79
2021/10/12 06:50:29;;;;;;;;;;;25.70;48.20;;;;;;5128336;27;19916;-83
2021/10/12 06:52:59;;;;;;;;;;;25.70;48.30;;;;;;5128916;27;19920;-81
2021/10/12 06:55:26;;;;;;;;;;;25.80;48.30;;;;;;5112192;28;19909;-81
2021/10/12 06:57:51;;;;;;;;;;;25.80;48.50;;;;;;5115365;28;19912;-78
2021/10/12 07:00:25;;;;;;;;;;;25.70;48.30;;;;;;5115737;28;19927;-84
2021/10/12 07:02:50;;;;;;;;;;;25.80;48.50;;;;;;5099011;28;19916;-81
2021/10/12 07:05:16;;;;;;;;;;;25.80;48.50;;;;;;5098359;28;19912;-80
2021/10/12 07:07:42;;;;;;;;;;;25.80;48.30;;;;;;5098250;28;19912;-83
2021/10/12 07:10:10;;;;;;;;;;;25.80;48.30;;;;;;5115291;28;19915;-80
2021/10/12 07:12:35;;;;;;;;;;;25.80;48.30;;;;;;5114996;28;20022;-82
2021/10/12 07:15:01;;;;;;;;;;;25.90;48.10;;;;;;5097789;28;19953;-78
2021/10/12 07:17:26;;;;;;;;;;;25.80;48.10;;;;;;5114628;28;19958;-78
2021/10/12 07:19:52;;;;;;;;;;;25.80;47.90;;;;;;5115234;28;19946;-79
2021/10/12 07:22:22;;;;;;;;;;;25.80;48.20;;;;;;5097859;28;20282;-78
2021/10/12 07:24:47;;;;;;;;;;;25.80;48.10;;;;;;5098188;28;20279;-79
2021/10/12 07:27:15;;;;;;;;;;;25.80;48.00;;;;;;5116466;28;19918;-80
2021/10/12 07:29:41;;;;;;;;;;;25.80;48.00;;;;;;5114348;28;19991;-79
2021/10/12 07:32:07;;;;;;;;;;;25.80;47.90;;;;;;5114330;28;19950;-80
2021/10/12 07:34:32;;;;;;;;;;;25.80;48.10;;;;;;5097330;28;19908;-83
2021/10/12 07:36:58;;;;;;;;;;;25.80;47.90;;;;;;5115206;28;19934;-80
2021/10/12 07:39:23;;;;;;;;;;;25.80;47.90;;;;;;5115275;28;20343;-79
2021/10/12 07:41:49;;;;;;;;;;;25.80;48.10;;;;;;5115063;28;19915;-81
2021/10/12 07:44:14;;;;;;;;;;;25.80;48.00;;;;;;5099370;28;19970;-79
2021/10/12 07:46:40;;;;;;;;;;;25.80;48.10;;;;;;5114973;28;19918;-79
2021/10/12 07:49:08;;;;;;;;;;;25.90;48.10;;;;;;5115220;28;19958;-80
2021/10/12 07:51:36;;;;;;;;;;;25.90;48.00;;;;;;5115314;28;19908;-79
2021/10/12 07:54:07;;;;;;;;;;;25.90;47.80;;;;;;5115177;28;20256;-77
2021/10/12 07:56:38;;;;;;;;;;;25.80;47.70;;;;;;5115591;28;20371;-80
2021/10/12 07:59:04;;;;;;;;;;;25.80;47.70;;;;;;5114781;28;19970;-82
2021/10/12 08:01:30;;;;;;;;;;;25.80;47.60;;;;;;5114845;28;20413;-82
2021/10/12 08:03:55;;;;;;;;;;;25.80;47.60;;;;;;5115533;28;19911;-80
2021/10/12 08:06:21;;;;;;;;;;;25.80;47.60;;;;;;5115413;28;19908;-79
2021/10/12 08:08:47;;;;;;;;;;;25.80;47.70;;;;;;5114513;28;19908;-79
2021/10/12 08:11:12;;;;;;;;;;;25.80;47.80;;;;;;5097226;28;20256;-77
2021/10/12 08:13:40;;;;;;;;;;;25.80;47.70;;;;;;5114433;28;20011;-79
2021/10/12 08:16:09;;;;;;;;;;;25.80;47.60;;;;;;5115455;28;19916;-78
2021/10/12 08:18:34;;;;;;;;;;;25.80;47.60;;;;;;5115595;28;19954;-79
2021/10/12 08:21:01;;;;;;;;;;;25.80;48.20;;;;;;5114341;28;19943;-79
2021/10/12 08:23:26;;;;;;;;;;;25.80;47.90;;;;;;5114395;28;19911;-81
2021/10/12 08:25:54;;;;;;;;;;;25.90;47.80;;;;;;5097185;28;19919;-79
2021/10/12 08:28:25;;;;;;;;;;;25.90;47.70;;;;;;5114163;28;19907;-79
2021/10/12 08:30:50;;;;;;;;;;;25.90;47.60;;;;;;5115126;28;19908;-78
2021/10/12 08:33:16;;;;;;;;;;;25.90;47.70;;;;;;5114276;28;20369;-81
2021/10/12 08:35:43;;;;;;;;;;;25.90;47.50;;;;;;5114440;28;19923;-80
2021/10/12 08:38:10;;;;;;;;;;;25.90;47.70;;;;;;5115424;28;19907;-82
2021/10/12 08:40:38;;;;;;;;;;;25.90;47.50;;;;;;5115045;28;20360;-79
2021/10/12 08:43:03;;;;;;;;;;;25.90;47.60;;;;;;5098919;28;19908;-78
2021/10/12 08:45:31;;;;;;;;;;;25.90;47.60;;;;;;5118955;28;19919;-79
2021/10/12 08:47:59;;;;;;;;;;;25.90;47.50;;;;;;5118812;28;19908;-80
2021/10/12 08:50:27;;;;;;;;;;;25.90;47.50;;;;;;5101837;28;20007;-78
2021/10/12 08:52:55;;;;;;;;;;;26.00;47.50;;;;;;5118532;28;19908;-81
2021/10/12 08:55:23;;;;;;;;;;;26.00;47.60;;;;;;5101188;28;20264;-80
2021/10/12 08:57:49;;;;;;;;;;;26.00;47.50;;;;;;5118433;28;19959;-78
2021/10/12 09:00:15;;;;;;;;;;;26.00;47.50;;;;;;5100709;28;19919;-80
2021/10/12 09:02:57;;;;;;;;;;;26.00;47.40;;;;;;5117301;28;20002;-80
2021/10/12 09:05:24;;;;;;;;;;;26.00;47.40;;;;;;5117543;28;20285;-82
2021/10/12 09:07:49;;;;;;;;;;;26.00;47.50;;;;;;5117419;28;19922;-80
2021/10/12 09:10:22;;;;;;;;;;;26.00;47.40;;;;;;5117586;28;19908;-80
2021/10/12 09:12:53;;;;;;;;;;;26.00;47.40;;;;;;5118417;28;19985;-80
2021/10/12 09:15:21;;;;;;;;;;;26.00;47.50;;;;;;5100773;28;20321;-80
2021/10/12 09:17:51;;;;;;;;;;;26.10;47.40;;;;;;5100577;28;19923;-83
2021/10/12 09:20:16;;;;;;;;;;;26.00;47.40;;;;;;5117391;28;19990;-78
2021/10/12 09:23:00;;;;;;;;;;;26.10;47.40;;;;;;5117135;28;19955;-78
2021/10/12 09:25:38;;;;;;;;;;;26.10;47.40;;;;;;5117371;28;20340;-81
2021/10/12 09:28:03;;;;;;;;;;;26.10;47.50;;;;;;5100373;28;19908;-79
2021/10/12 09:30:30;;;;;;;;;;;26.10;47.40;;;;;;5116733;28;19961;-82
2021/10/12 09:33:04;;;;;;;;;;;26.10;47.30;;;;;;5116680;28;19924;-76
2021/10/12 09:35:30;;;;;;;;;;;26.10;47.30;;;;;;5116343;28;19911;-79
2021/10/12 09:38:22;;;;;;;;;;;26.10;47.40;;;;;;5091483;28;19920;-79
2021/10/12 09:40:48;;;;;;;;;;;26.10;47.30;;;;;;5073876;28;19909;-81
2021/10/12 09:43:15;;;;;;;;;;;26.10;47.30;;;;;;5076546;28;19909;-79
2021/10/12 09:45:41;;;;;;;;;;;26.10;47.40;;;;;;5093422;28;19909;-79
2021/10/12 09:48:26;;;;;;;;;;;26.10;47.30;;;;;;5076903;28;20249;-80
2021/10/12 09:51:27;;;;;;;;;;;26.10;47.40;;;;;;5093088;28;20383;-78
2021/10/12 09:53:53;;;;;;;;;;;26.10;47.40;;;;;;5035482;28;20396;-78
2021/10/12 09:56:18;;;;;;;;;;;26.10;47.50;;;;;;5084759;28;20002;-79
2021/10/12 09:58:45;;;;;;;;;;;26.10;47.60;;;;;;5116352;28;19961;-81
2021/10/12 10:01:11;;;;;;;;;;;26.10;47.70;;;;;;5116506;28;20228;-80
2021/10/12 10:03:39;;;;;;;;;;;26.10;47.70;;;;;;5099309;28;19972;-80
2021/10/12 10:06:11;;;;;;;;;;;26.10;47.70;;;;;;5099476;28;20045;-81
2021/10/12 10:08:38;;;;;;;;;;;26.10;47.70;;;;;;5116154;28;19960;-80
2021/10/12 10:11:04;;;;;;;;;;;26.10;47.70;;;;;;5116106;28;19907;-79
2021/10/12 10:13:32;;;;;;;;;;;26.10;47.70;;;;;;5116139;28;19919;-78
2021/10/12 10:16:00;;;;;;;;;;;26.10;47.80;;;;;;5099240;28;19926;-79
2021/10/12 10:18:26;;;;;;;;;;;26.10;47.80;;;;;;5116150;28;19965;-78
2021/10/12 10:20:54;;;;;;;;;;;26.10;47.90;;;;;;5115990;28;19912;-78
2021/10/12 10:23:40;;;;;;;;;;;26.10;47.90;;;;;;5115978;28;19911;-79
2021/10/12 10:26:35;;;;;;;;;;;26.10;47.90;;;;;;5116384;28;20328;-78
2021/10/12 10:29:16;;;;;;;;;;;26.10;47.90;;;;;;5107320;28;19915;-80
2021/10/12 10:31:41;;;;;;;;;;;26.10;48.00;;;;;;5115715;28;20399;-79
2021/10/12 10:34:29;;;;;;;;;;;26.00;47.90;;;;;;5098639;28;19951;-78
2021/10/12 10:37:13;;;;;;;;;;;26.10;48.10;;;;;;5116233;28;19919;-78
2021/10/12 10:39:38;;;;;;;;;;;26.10;48.00;;;;;;5116262;28;19957;-79
2021/10/12 10:42:04;;;;;;;;;;;26.00;48.00;;;;;;5098383;28;19958;-78
2021/10/12 10:44:48;;;;;;;;;;;26.10;47.90;;;;;;5115354;28;20234;-78
2021/10/12 10:47:35;;;;;;;;;;;26.10;47.90;;;;;;5116091;28;19908;-79
2021/10/12 10:50:10;;;;;;;;;;;26.10;47.90;;;;;;5115401;28;19908;-79
2021/10/12 10:52:48;;;;;;;;;;;26.00;48.00;;;;;;5116172;28;19907;-81
2021/10/12 10:55:20;;;;;;;;;;;26.00;48.00;;;;;;5116026;28;19935;-80
2021/10/12 10:58:05;;;;;;;;;;;26.00;48.00;;;;;;5115245;28;20213;-78
2021/10/12 11:00:39;;;;;;;;;;;26.00;48.00;;;;;;5116276;28;20193;-83
2021/10/12 11:03:07;;;;;;;;;;;26.10;48.10;;;;;;5116156;28;19943;-81
2021/10/12 11:05:34;;;;;;;;;;;26.00;48.00;;;;;;5115300;28;19987;-80
2021/10/12 11:08:06;;;;;;;;;;;26.00;48.10;;;;;;5115513;28;19929;-82
2021/10/12 11:10:31;;;;;;;;;;;26.10;48.10;;;;;;5115394;28;19960;-82
2021/10/12 11:13:00;;;;;;;;;;;26.10;48.10;;;;;;5114952;28;20263;-79
2021/10/12 11:15:25;;;;;;;;;;;26.10;48.10;;;;;;5114733;28;19915;-78
2021/10/12 11:18:09;;;;;;;;;;;26.10;48.10;;;;;;5114617;28;19911;-78
2021/10/12 11:20:53;;;;;;;;;;;26.10;48.10;;;;;;5098047;28;19907;-80
2021/10/12 11:23:25;;;;;;;;;;;26.10;48.10;;;;;;5114890;28;19994;-77
2021/10/12 11:25:54;;;;;;;;;;;26.10;48.00;;;;;;5114701;28;19998;-82
2021/10/12 11:28:21;;;;;;;;;;;26.10;47.90;;;;;;5114856;28;19922;-80
2021/10/12 11:30:49;;;;;;;;;;;26.20;48.00;;;;;;5114734;28;20358;-79
2021/10/12 11:33:14;;;;;;;;;;;26.20;47.90;;;;;;5114706;28;20304;-79
2021/10/12 11:35:40;;;;;;;;;;;26.20;47.80;;;;;;5114430;28;19919;-78
2021/10/12 11:38:06;;;;;;;;;;;26.10;47.80;;;;;;5108634;28;20279;-79
2021/10/12 11:40:32;;;;;;;;;;;26.20;47.90;;;;;;5095171;28;19908;-78
2021/10/12 11:43:01;;;;;;;;;;;26.20;47.90;;;;;;5111246;28;19908;-80
2021/10/12 11:45:31;;;;;;;;;;;26.20;47.80;;;;;;5110659;28;20069;-81
2021/10/12 11:47:59;;;;;;;;;;;26.20;48.00;;;;;;5127935;28;19919;-82
2021/10/12 11:50:27;;;;;;;;;;;26.20;47.80;;;;;;5110935;28;19915;-80
2021/10/12 11:52:53;;;;;;;;;;;26.20;47.80;;;;;;5110571;28;19918;-81
2021/10/12 11:55:23;;;;;;;;;;;26.20;47.80;;;;;;5110956;28;19991;-80
2021/10/12 11:57:48;;;;;;;;;;;26.20;47.70;;;;;;5110967;28;20490;-79
2021/10/12 12:00:14;;;;;;;;;;;26.20;47.70;;;;;;5128244;28;20006;-81
2021/10/12 12:02:43;;;;;;;;;;;26.20;47.60;;;;;;5094464;28;20003;-80
2021/10/12 12:05:09;;;;;;;;;;;26.20;47.60;;;;;;5093724;28;19961;-80
2021/10/12 12:07:36;;;;;;;;;;;26.20;47.60;;;;;;5128136;28;19924;-77
2021/10/12 12:10:01;;;;;;;;;;;26.20;47.70;;;;;;5127300;28;20351;-81
2021/10/12 12:12:29;;;;;;;;;;;26.20;47.70;;;;;;5127823;28;19909;-79
2021/10/12 12:14:55;;;;;;;;;;;26.20;47.60;;;;;;5127444;28;20278;-80
2021/10/12 12:17:27;;;;;;;;;;;26.20;47.70;;;;;;5128054;28;19912;-79
2021/10/12 12:19:56;;;;;;;;;;;26.30;47.70;;;;;;5114204;28;19915;-80
2021/10/12 12:22:28;;;;;;;;;;;26.20;47.60;;;;;;5132164;27;19919;-78
2021/10/12 12:24:57;;;;;;;;;;;26.20;47.60;;;;;;5131950;27;19919;-81
2021/10/12 12:27:27;;;;;;;;;;;26.30;47.50;;;;;;5097659;28;19920;-79
2021/10/12 12:30:02;;;;;;;;;;;26.20;47.50;;;;;;5114410;28;19931;-77
2021/10/12 12:32:28;;;;;;;;;;;26.20;47.50;;;;;;5114762;28;19916;-82
2021/10/12 12:35:06;;;;;;;;;;;26.30;47.60;;;;;;5097753;28;19908;-81
2021/10/12 12:37:32;;;;;;;;;;;26.20;47.50;;;;;;5097642;28;19920;-80
2021/10/12 12:39:58;;;;;;;;;;;26.20;47.60;;;;;;5114535;28;19919;-77
2021/10/12 12:42:37;;;;;;;;;;;26.30;47.70;;;;;;5131523;27;20003;-78
2021/10/12 12:45:09;;;;;;;;;;;26.30;47.60;;;;;;5131576;27;19968;-83
2021/10/12 12:47:35;;;;;;;;;;;26.30;47.60;;;;;;5131466;27;20321;-77
2021/10/12 12:50:10;;;;;;;;;;;26.30;47.60;;;;;;5131507;27;19915;-81
2021/10/12 12:52:35;;;;;;;;;;;26.30;47.60;;;;;;5098135;28;19962;-80
2021/10/12 12:55:01;;;;;;;;;;;26.30;47.50;;;;;;5097180;28;20406;-79
2021/10/12 12:57:26;;;;;;;;;;;26.30;47.50;;;;;;5131589;27;19923;-79
2021/10/12 13:00:00;;;;;;;;;;;26.30;47.50;;;;;;5131478;27;19927;-80
2021/10/12 13:02:26;;;;;;;;;;;26.30;47.40;;;;;;5131285;27;19911;-78
2021/10/12 13:04:51;;;;;;;;;;;26.30;47.50;;;;;;5131566;27;19926;-81
2021/10/12 13:07:17;;;;;;;;;;;26.30;47.30;;;;;;5114265;28;19908;-82
2021/10/12 13:09:47;;;;;;;;;;;26.30;47.40;;;;;;5097866;28;19965;-80
2021/10/12 13:12:15;;;;;;;;;;;26.30;47.50;;;;;;5113910;28;20259;-77
2021/10/12 13:14:45;;;;;;;;;;;26.30;47.50;;;;;;5130738;27;19998;-81
2021/10/12 13:17:13;;;;;;;;;;;26.30;47.60;;;;;;5129561;27;19912;-78
2021/10/12 13:19:41;;;;;;;;;;;26.30;47.50;;;;;;5130084;27;19916;-80
2021/10/12 13:22:06;;;;;;;;;;;26.30;47.50;;;;;;5096711;28;19965;-80
2021/10/12 13:24:34;;;;;;;;;;;26.30;47.40;;;;;;5130858;27;20302;-78
2021/10/12 13:27:05;;;;;;;;;;;26.30;47.40;;;;;;5096531;28;19930;-81
2021/10/12 13:29:30;;;;;;;;;;;26.30;47.50;;;;;;5097118;28;19908;-81
2021/10/12 13:31:59;;;;;;;;;;;26.30;47.50;;;;;;5113765;28;19919;-78
2021/10/12 13:34:24;;;;;;;;;;;26.30;47.50;;;;;;5129790;27;19947;-80
2021/10/12 13:36:50;;;;;;;;;;;26.30;47.40;;;;;;5096021;28;20354;-78
2021/10/12 13:39:18;;;;;;;;;;;26.30;47.40;;;;;;5080391;28;19919;-81
2021/10/12 13:41:43;;;;;;;;;;;26.30;47.50;;;;;;5076531;28;19909;-80
2021/10/12 13:44:09;;;;;;;;;;;26.30;47.40;;;;;;5075938;28;19908;-82
2021/10/12 13:46:34;;;;;;;;;;;26.30;47.50;;;;;;5077068;28;19908;-84
2021/10/12 13:49:03;;;;;;;;;;;26.30;47.50;;;;;;5092750;28;19952;-80
2021/10/12 13:51:28;;;;;;;;;;;26.30;47.40;;;;;;5092920;28;19920;-79
2021/10/12 13:53:53;;;;;;;;;;;26.30;47.30;;;;;;5092657;28;19920;-81
2021/10/12 13:56:19;;;;;;;;;;;26.30;47.40;;;;;;5109484;27;20306;-80
2021/10/12 13:58:45;;;;;;;;;;;26.30;47.30;;;;;;5116158;28;19915;-81
2021/10/12 14:01:10;;;;;;;;;;;26.30;47.40;;;;;;5099233;28;19908;-79
2021/10/12 14:03:36;;;;;;;;;;;26.30;47.30;;;;;;5099239;28;19937;-80
2021/10/12 14:06:04;;;;;;;;;;;26.30;47.30;;;;;;5116418;28;19916;-81
2021/10/12 14:08:29;;;;;;;;;;;26.30;47.30;;;;;;5117117;28;20004;-84
2021/10/12 14:10:57;;;;;;;;;;;26.30;47.30;;;;;;5116217;28;20344;-79
2021/10/12 14:13:27;;;;;;;;;;;26.30;47.40;;;;;;5116253;28;19911;-80
2021/10/12 14:15:53;;;;;;;;;;;26.30;47.40;;;;;;5117068;28;19908;-78
2021/10/12 14:18:20;;;;;;;;;;;26.30;47.40;;;;;;5099210;28;19907;-83
2021/10/12 14:20:49;;;;;;;;;;;26.30;47.40;;;;;;5099346;28;19915;-82